Time;durP1;ratioP1;P1;durP2;ratioP2;P2;SDS_P1;SDS_P2;PMS_P1;PMS_P2;Temp;Humidity;BMP_temperature;BMP_pressure;BME280_temperature;BME280_humidity;BME280_pressure;Samples;Min_cycle;Max_cycle;Signal;HPM_P1;HPM_P2
2023/04/01 00:01:11;;;;;;;;;;;10.00;99.90;;;;;;5024712;28;212000;-72
2023/04/01 00:03:37;;;;;;;;;;;10.00;99.90;;;;;;5058713;28;19921;-71
2023/04/01 00:06:03;;;;;;;;;;;9.90;99.90;;;;;;4993453;28;208507;-71
2023/04/01 00:08:29;;;;;;;;;;;9.90;99.90;;;;;;5072265;28;19928;-70
2023/04/01 00:10:56;;;;;;;;;;;9.90;99.90;;;;;;5018197;28;217715;-70
2023/04/01 00:13:23;;;;;;;;;;;9.90;99.90;;;;;;5055605;28;20621;-71
2023/04/01 00:15:48;;;;;;;;;;;9.90;99.90;;;;;;5008695;28;134327;-71
2023/04/01 00:18:15;;;;;;;;;;;9.90;99.90;;;;;;5056117;28;20401;-69
2023/04/01 00:20:45;;;;;;;;;;;9.90;99.90;;;;;;5005152;28;206655;-67
2023/04/01 00:23:11;;;;;;;;;;;9.90;99.90;;;;;;5055310;28;20401;-71
2023/04/01 00:25:37;;;;;;;;;;;9.90;99.90;;;;;;5009980;28;207193;-69
2023/04/01 00:28:02;;;;;;;;;;;9.90;99.90;;;;;;5060515;28;19928;-71
2023/04/01 00:30:28;;;;;;;;;;;9.90;99.90;;;;;;5011236;28;208941;-70
2023/04/01 00:32:54;;;;;;;;;;;9.90;99.90;;;;;;5053896;28;19929;-68
2023/04/01 00:35:20;;;;;;;;;;;10.00;99.90;;;;;;4999807;28;208619;-70
2023/04/01 00:37:47;;;;;;;;;;;9.90;99.90;;;;;;5050930;28;20377;-69
2023/04/01 00:40:24;;;;;;;;;;;9.90;99.90;;;;;;5005669;28;210637;-70
2023/04/01 00:42:50;;;;;;;;;;;9.90;99.90;;;;;;5057200;28;19927;-70
2023/04/01 00:45:27;;;;;;;;;;;10.00;99.90;;;;;;5007950;28;216402;-71
2023/04/01 00:47:54;;;;;;;;;;;9.90;99.90;;;;;;5053001;28;19921;-71
2023/04/01 00:50:22;;;;;;;;;;;9.90;99.90;;;;;;5007546;28;208011;-68
2023/04/01 00:52:48;;;;;;;;;;;9.90;99.90;;;;;;5063475;28;19932;-70
2023/04/01 00:55:14;;;;;;;;;;;9.90;99.90;;;;;;5010897;28;211828;-71
2023/04/01 00:57:41;;;;;;;;;;;9.90;99.90;;;;;;5065330;28;19939;-69
2023/04/01 01:00:09;;;;;;;;;;;9.90;99.90;;;;;;5011020;28;208511;-69
2023/04/01 01:02:35;;;;;;;;;;;9.90;99.90;;;;;;5062456;28;19928;-70
2023/04/01 01:05:01;;;;;;;;;;;9.90;99.90;;;;;;4992019;28;221088;-68
2023/04/01 01:07:47;;;;;;;;;;;9.90;99.90;;;;;;5030604;28;19964;-71
2023/04/01 01:10:32;;;;;;;;;;;10.00;99.90;;;;;;5008032;28;207179;-70
2023/04/01 01:12:58;;;;;;;;;;;9.90;99.90;;;;;;5057051;28;19929;-70
2023/04/01 01:15:45;;;;;;;;;;;9.90;99.90;;;;;;5006420;28;207004;-70
2023/04/01 01:18:15;;;;;;;;;;;9.90;99.90;;;;;;5051569;28;20411;-71
2023/04/01 01:20:56;;;;;;;;;;;9.90;99.90;;;;;;5000129;28;206389;-71
2023/04/01 01:23:24;;;;;;;;;;;9.90;99.90;;;;;;5056262;28;19990;-71
2023/04/01 01:26:09;;;;;;;;;;;9.90;99.90;;;;;;4998653;28;206605;-71
2023/04/01 01:28:44;;;;;;;;;;;9.90;99.90;;;;;;5050526;28;19954;-70
2023/04/01 01:31:12;;;;;;;;;;;9.90;99.90;;;;;;5018893;28;208106;-70
2023/04/01 01:33:45;;;;;;;;;;;9.80;99.90;;;;;;5069258;28;19928;-70
2023/04/01 01:36:12;;;;;;;;;;;9.90;99.90;;;;;;5020278;28;206489;-71
2023/04/01 01:38:39;;;;;;;;;;;9.80;99.90;;;;;;5050043;28;19935;-71
2023/04/01 01:41:06;;;;;;;;;;;9.90;99.90;;;;;;4983148;28;206097;-71
2023/04/01 01:43:41;;;;;;;;;;;9.80;99.90;;;;;;5056381;28;19931;-71
2023/04/01 01:46:10;;;;;;;;;;;9.80;99.90;;;;;;4987944;28;121174;-71
2023/04/01 01:48:37;;;;;;;;;;;9.90;99.90;;;;;;5054620;28;19936;-71
2023/04/01 01:51:04;;;;;;;;;;;9.80;99.90;;;;;;5005001;28;211963;-71
2023/04/01 01:53:30;;;;;;;;;;;9.80;99.90;;;;;;5057745;28;20568;-71
2023/04/01 01:55:56;;;;;;;;;;;9.80;99.90;;;;;;5018268;28;207170;-70
2023/04/01 01:58:40;;;;;;;;;;;9.80;99.90;;;;;;5059894;28;19935;-70
2023/04/01 02:01:08;;;;;;;;;;;9.70;99.90;;;;;;5004670;28;161745;-70
2023/04/01 02:03:36;;;;;;;;;;;9.70;99.90;;;;;;5059858;28;19928;-71
2023/04/01 02:06:04;;;;;;;;;;;9.80;99.90;;;;;;4999437;28;211427;-70
2023/04/01 02:08:33;;;;;;;;;;;9.80;99.90;;;;;;5057297;28;19924;-70
2023/04/01 02:11:02;;;;;;;;;;;9.70;99.90;;;;;;4999330;28;206383;-71
2023/04/01 02:13:40;;;;;;;;;;;9.70;99.90;;;;;;5059567;28;19920;-71
2023/04/01 02:16:11;;;;;;;;;;;9.70;99.90;;;;;;4976320;28;215786;-71
2023/04/01 02:18:38;;;;;;;;;;;9.70;99.90;;;;;;5055810;28;19939;-72
2023/04/01 02:21:04;;;;;;;;;;;9.70;99.90;;;;;;5007224;28;160830;-72
2023/04/01 02:23:31;;;;;;;;;;;9.70;99.90;;;;;;5055330;28;19928;-72
2023/04/01 02:25:57;;;;;;;;;;;9.70;99.90;;;;;;4994619;28;208132;-73
2023/04/01 02:28:24;;;;;;;;;;;9.70;99.90;;;;;;5055841;28;20020;-72
2023/04/01 02:30:51;;;;;;;;;;;9.70;99.90;;;;;;5017354;28;209002;-74
2023/04/01 02:33:17;;;;;;;;;;;9.70;99.90;;;;;;5060016;28;19939;-72
2023/04/01 02:35:43;;;;;;;;;;;9.70;99.90;;;;;;4999558;28;206668;-72
2023/04/01 02:38:09;;;;;;;;;;;9.70;99.90;;;;;;5057500;28;19928;-72
2023/04/01 02:40:45;;;;;;;;;;;9.70;99.90;;;;;;5013310;28;206080;-72
2023/04/01 02:43:11;;;;;;;;;;;9.60;99.90;;;;;;5060408;28;20364;-71
2023/04/01 02:45:37;;;;;;;;;;;9.60;99.90;;;;;;5016972;28;206317;-72
2023/04/01 02:48:03;;;;;;;;;;;9.70;99.90;;;;;;5052372;28;21668;-73
2023/04/01 02:50:29;;;;;;;;;;;9.60;99.90;;;;;;5015442;28;205786;-71
2023/04/01 02:52:55;;;;;;;;;;;9.60;99.90;;;;;;5063054;28;19935;-72
2023/04/01 02:55:21;;;;;;;;;;;9.70;99.90;;;;;;5001897;28;209464;-72
2023/04/01 02:57:47;;;;;;;;;;;9.60;99.90;;;;;;5047930;28;20405;-72
2023/04/01 03:00:14;;;;;;;;;;;9.60;99.90;;;;;;5001120;28;214580;-72
2023/04/01 03:02:40;;;;;;;;;;;9.60;99.90;;;;;;5051668;28;20313;-73
2023/04/01 03:05:06;;;;;;;;;;;9.60;99.90;;;;;;4982071;28;205478;-71
2023/04/01 03:07:33;;;;;;;;;;;9.60;99.90;;;;;;5066538;28;19950;-71
2023/04/01 03:09:59;;;;;;;;;;;9.60;99.90;;;;;;5023060;28;206450;-72
2023/04/01 03:12:25;;;;;;;;;;;9.60;99.90;;;;;;5047050;28;19929;-71
2023/04/01 03:14:51;;;;;;;;;;;9.50;99.90;;;;;;5006463;28;177338;-71
2023/04/01 03:17:16;;;;;;;;;;;9.50;99.90;;;;;;5052373;28;20391;-71
2023/04/01 03:19:42;;;;;;;;;;;9.50;99.90;;;;;;5001723;28;205846;-71
2023/04/01 03:22:10;;;;;;;;;;;9.50;99.90;;;;;;5054908;28;19939;-72
2023/04/01 03:24:36;;;;;;;;;;;9.50;99.90;;;;;;4996619;28;207205;-72
2023/04/01 03:27:02;;;;;;;;;;;9.50;99.90;;;;;;5055137;28;19958;-72
2023/04/01 03:29:28;;;;;;;;;;;9.50;99.90;;;;;;4997693;28;206610;-72
2023/04/01 03:31:54;;;;;;;;;;;9.50;99.90;;;;;;5067513;28;19932;-72
2023/04/01 03:34:20;;;;;;;;;;;9.50;99.90;;;;;;4986261;28;208729;-71
2023/04/01 03:36:46;;;;;;;;;;;9.50;99.90;;;;;;5055251;28;19939;-72
2023/04/01 03:39:12;;;;;;;;;;;9.40;99.90;;;;;;5019842;28;207359;-71
2023/04/01 03:41:38;;;;;;;;;;;9.40;99.90;;;;;;5055155;28;20333;-72
2023/04/01 03:44:04;;;;;;;;;;;9.50;99.90;;;;;;5057086;28;19971;-72
2023/04/01 03:46:30;;;;;;;;;;;9.50;99.90;;;;;;4999625;28;205979;-72
2023/04/01 03:48:56;;;;;;;;;;;9.50;99.90;;;;;;5056075;28;19952;-72
2023/04/01 03:51:22;;;;;;;;;;;9.50;99.90;;;;;;5012127;28;211147;-72
2023/04/01 03:53:48;;;;;;;;;;;9.50;99.90;;;;;;5057224;28;19939;-71
2023/04/01 03:56:14;;;;;;;;;;;9.50;99.90;;;;;;5013563;28;207862;-70
2023/04/01 03:58:40;;;;;;;;;;;9.50;99.90;;;;;;5052760;28;19982;-72
2023/04/01 04:01:16;;;;;;;;;;;9.50;99.90;;;;;;4981641;28;194216;-72
2023/04/01 04:03:43;;;;;;;;;;;9.60;99.90;;;;;;5056426;28;19929;-71
2023/04/01 04:06:11;;;;;;;;;;;9.50;99.90;;;;;;5004755;28;207007;-72
2023/04/01 04:08:37;;;;;;;;;;;9.50;99.90;;;;;;5060202;28;19943;-72
2023/04/01 04:11:02;;;;;;;;;;;9.50;99.90;;;;;;4990733;28;207395;-71
2023/04/01 04:13:28;;;;;;;;;;;9.60;99.90;;;;;;5053428;28;19928;-73
2023/04/01 04:15:54;;;;;;;;;;;9.60;99.90;;;;;;5008560;28;207334;-72
2023/04/01 04:18:20;;;;;;;;;;;9.60;99.90;;;;;;5052936;28;19935;-72
2023/04/01 04:20:49;;;;;;;;;;;9.60;99.90;;;;;;5012931;28;207465;-72
2023/04/01 04:23:15;;;;;;;;;;;9.60;99.90;;;;;;5058311;28;19924;-71
2023/04/01 04:25:41;;;;;;;;;;;9.60;99.90;;;;;;5008824;28;106492;-72
2023/04/01 04:28:07;;;;;;;;;;;9.60;99.90;;;;;;5061330;28;20058;-72
2023/04/01 04:30:33;;;;;;;;;;;9.60;99.90;;;;;;5008438;28;213328;-72
2023/04/01 04:32:59;;;;;;;;;;;9.60;99.90;;;;;;5050992;28;19939;-71
2023/04/01 04:35:25;;;;;;;;;;;9.60;99.90;;;;;;5006589;28;212596;-71
2023/04/01 04:37:51;;;;;;;;;;;9.60;99.90;;;;;;5060301;28;19934;-71
2023/04/01 04:40:17;;;;;;;;;;;9.60;99.90;;;;;;5003409;28;209261;-71
2023/04/01 04:42:43;;;;;;;;;;;9.70;99.90;;;;;;5064261;28;20049;-71
2023/04/01 04:45:12;;;;;;;;;;;9.70;99.90;;;;;;4992097;28;203347;-69
2023/04/01 04:47:38;;;;;;;;;;;9.70;99.90;;;;;;5045136;28;19928;-70
2023/04/01 04:50:04;;;;;;;;;;;9.60;99.90;;;;;;5010511;28;208398;-71
2023/04/01 04:52:30;;;;;;;;;;;9.70;99.90;;;;;;5054451;28;19920;-72
2023/04/01 04:54:56;;;;;;;;;;;9.70;99.90;;;;;;4989302;28;211148;-71
2023/04/01 04:57:22;;;;;;;;;;;9.60;99.90;;;;;;5013025;28;19929;-71
2023/04/01 04:59:48;;;;;;;;;;;9.60;99.90;;;;;;4998119;28;211910;-71
2023/04/01 05:02:14;;;;;;;;;;;9.60;99.90;;;;;;5054031;28;19925;-70
2023/04/01 05:04:39;;;;;;;;;;;9.70;99.90;;;;;;4985187;28;210587;-70
2023/04/01 05:07:05;;;;;;;;;;;9.70;99.90;;;;;;5067307;28;20350;-71
2023/04/01 05:09:32;;;;;;;;;;;9.70;99.90;;;;;;5006536;28;211951;-70
2023/04/01 05:11:57;;;;;;;;;;;9.60;99.90;;;;;;5075873;28;19928;-71
2023/04/01 05:14:26;;;;;;;;;;;9.70;99.90;;;;;;5008956;28;206524;-71
2023/04/01 05:16:54;;;;;;;;;;;9.70;99.90;;;;;;5053676;28;19928;-71
2023/04/01 05:19:20;;;;;;;;;;;9.70;99.90;;;;;;4999120;28;213197;-71
2023/04/01 05:21:46;;;;;;;;;;;9.70;99.90;;;;;;5055723;28;19924;-71
2023/04/01 05:24:12;;;;;;;;;;;9.70;99.90;;;;;;5029023;28;207220;-73
2023/04/01 05:26:37;;;;;;;;;;;9.70;99.90;;;;;;5060331;28;19927;-71
2023/04/01 05:29:04;;;;;;;;;;;9.70;99.90;;;;;;5056590;28;19939;-70
2023/04/01 05:31:30;;;;;;;;;;;9.70;99.90;;;;;;5013476;28;132980;-70
2023/04/01 05:33:56;;;;;;;;;;;9.70;99.90;;;;;;5057463;28;20285;-70
2023/04/01 05:36:22;;;;;;;;;;;9.70;99.90;;;;;;4996919;28;209714;-70
2023/04/01 05:38:48;;;;;;;;;;;9.80;99.90;;;;;;5055336;28;20012;-70
2023/04/01 05:41:14;;;;;;;;;;;9.80;99.90;;;;;;5017249;28;214258;-71
2023/04/01 05:43:40;;;;;;;;;;;9.70;99.90;;;;;;5055465;28;19932;-71
2023/04/01 05:46:06;;;;;;;;;;;9.70;99.90;;;;;;5009144;28;215375;-71
2023/04/01 05:48:34;;;;;;;;;;;9.80;99.90;;;;;;5058343;28;19966;-71
2023/04/01 05:51:01;;;;;;;;;;;9.80;99.90;;;;;;4997049;28;207954;-73
2023/04/01 05:53:26;;;;;;;;;;;9.80;99.90;;;;;;5053008;28;19925;-70
2023/04/01 05:55:52;;;;;;;;;;;9.70;99.90;;;;;;5012813;28;207221;-73
2023/04/01 05:58:18;;;;;;;;;;;9.80;99.90;;;;;;5058825;28;20394;-71
2023/04/01 06:00:44;;;;;;;;;;;9.80;99.90;;;;;;5016046;28;209912;-72
2023/04/01 06:03:10;;;;;;;;;;;9.70;99.90;;;;;;5061055;28;19921;-73
2023/04/01 06:05:42;;;;;;;;;;;9.70;99.90;;;;;;4985415;28;204218;-71
2023/04/01 06:08:14;;;;;;;;;;;9.70;99.90;;;;;;5064146;28;19921;-69
2023/04/01 06:10:43;;;;;;;;;;;9.70;99.90;;;;;;5014376;28;207539;-70
2023/04/01 06:13:09;;;;;;;;;;;9.70;99.90;;;;;;5067011;28;19928;-71
2023/04/01 06:15:58;;;;;;;;;;;9.60;99.90;;;;;;5020911;28;225592;-70
2023/04/01 06:18:36;;;;;;;;;;;9.60;99.90;;;;;;5017704;28;19933;-70
2023/04/01 06:21:02;;;;;;;;;;;9.70;99.90;;;;;;4964603;28;191222;-70
2023/04/01 06:23:33;;;;;;;;;;;9.70;99.90;;;;;;5026065;28;20310;-71
2023/04/01 06:25:58;;;;;;;;;;;9.60;99.90;;;;;;4957157;28;164417;-71
2023/04/01 06:28:24;;;;;;;;;;;9.70;99.90;;;;;;5018579;28;21449;-71
2023/04/01 06:30:56;;;;;;;;;;;9.60;99.90;;;;;;4968270;28;194272;-72
2023/04/01 06:33:31;;;;;;;;;;;9.70;99.90;;;;;;5033801;28;19968;-70
2023/04/01 06:36:03;;;;;;;;;;;9.60;99.90;;;;;;4978990;28;204686;-71
2023/04/01 06:38:31;;;;;;;;;;;9.60;99.90;;;;;;5027833;28;20337;-71
2023/04/01 06:41:11;;;;;;;;;;;9.70;99.90;;;;;;4957560;28;230670;-70
2023/04/01 06:43:43;;;;;;;;;;;9.70;99.90;;;;;;5027079;28;19947;-72
2023/04/01 06:46:10;;;;;;;;;;;9.70;99.90;;;;;;4983874;28;215324;-71
2023/04/01 06:48:47;;;;;;;;;;;9.70;99.90;;;;;;5026814;28;19929;-72
2023/04/01 06:51:15;;;;;;;;;;;9.70;99.90;;;;;;4974500;28;109500;-72
2023/04/01 06:54:07;;;;;;;;;;;9.70;99.90;;;;;;5019724;28;20313;-71
2023/04/01 06:56:34;;;;;;;;;;;9.70;99.90;;;;;;4992678;28;38703;-72
2023/04/01 06:59:06;;;;;;;;;;;9.70;99.90;;;;;;5064814;28;19939;-72
2023/04/01 07:01:35;;;;;;;;;;;9.80;99.90;;;;;;5000990;28;207725;-73
2023/04/01 07:04:12;;;;;;;;;;;9.70;99.90;;;;;;5061718;28;19924;-72
2023/04/01 07:06:45;;;;;;;;;;;9.70;99.90;;;;;;5004116;28;19992;-74
2023/04/01 07:09:14;;;;;;;;;;;9.70;99.90;;;;;;5022833;28;216833;-75
2023/04/01 07:11:40;;;;;;;;;;;9.70;99.90;;;;;;5049340;28;19927;-75
2023/04/01 07:14:18;;;;;;;;;;;9.70;99.90;;;;;;5049273;28;204984;-75
2023/04/01 07:16:50;;;;;;;;;;;9.80;99.90;;;;;;5028828;28;207486;-74
2023/04/01 07:19:16;;;;;;;;;;;9.70;99.90;;;;;;5042209;28;210492;-73
2023/04/01 07:21:50;;;;;;;;;;;9.80;99.90;;;;;;5025343;28;19925;-72
2023/04/01 07:24:21;;;;;;;;;;;9.80;99.90;;;;;;5037980;28;209236;-72
2023/04/01 07:26:48;;;;;;;;;;;9.80;99.90;;;;;;5062965;28;20031;-73
2023/04/01 07:29:15;;;;;;;;;;;9.90;99.90;;;;;;5015396;28;207634;-73
2023/04/01 07:31:56;;;;;;;;;;;10.00;99.90;;;;;;5059236;28;19950;-73
2023/04/01 07:34:27;;;;;;;;;;;10.00;99.90;;;;;;5015585;28;208489;-73
2023/04/01 07:36:57;;;;;;;;;;;10.10;99.90;;;;;;5073585;28;19921;-73
2023/04/01 07:39:27;;;;;;;;;;;10.10;99.90;;;;;;4999948;28;216996;-73
2023/04/01 07:42:28;;;;;;;;;;;10.20;99.90;;;;;;5062067;28;19924;-74
2023/04/01 07:45:02;;;;;;;;;;;10.20;99.90;;;;;;5003365;28;235195;-74
2023/04/01 07:47:28;;;;;;;;;;;10.30;99.90;;;;;;5045442;28;19924;-75
2023/04/01 07:49:54;;;;;;;;;;;10.50;99.90;;;;;;4969629;28;207542;-75
2023/04/01 07:52:20;;;;;;;;;;;10.50;99.90;;;;;;5046763;28;19931;-76
2023/04/01 07:54:55;;;;;;;;;;;10.60;99.90;;;;;;4979295;28;206852;-75
2023/04/01 07:57:21;;;;;;;;;;;10.60;99.90;;;;;;5041666;28;19924;-76
2023/04/01 07:59:51;;;;;;;;;;;10.60;99.90;;;;;;5002902;28;206162;-74
2023/04/01 08:02:29;;;;;;;;;;;10.80;99.90;;;;;;5042701;28;19955;-74
2023/04/01 08:05:15;;;;;;;;;;;10.80;99.90;;;;;;4969529;28;214716;-73
2023/04/01 08:07:50;;;;;;;;;;;10.80;99.90;;;;;;5033822;28;20356;-74
2023/04/01 08:10:16;;;;;;;;;;;10.80;99.90;;;;;;4999571;28;54959;-74
2023/04/01 08:12:50;;;;;;;;;;;11.00;99.90;;;;;;5031797;28;19928;-74
2023/04/01 08:15:28;;;;;;;;;;;11.10;99.90;;;;;;4991394;28;202851;-73
2023/04/01 08:18:15;;;;;;;;;;;11.10;99.90;;;;;;5043181;28;19921;-73
2023/04/01 08:20:42;;;;;;;;;;;11.20;99.90;;;;;;5012393;28;210678;-72
2023/04/01 08:23:27;;;;;;;;;;;11.10;99.90;;;;;;5058201;28;19928;-73
2023/04/01 08:26:06;;;;;;;;;;;11.20;99.90;;;;;;5001132;28;209510;-72
2023/04/01 08:29:04;;;;;;;;;;;11.10;99.90;;;;;;5059224;28;19924;-73
2023/04/01 08:31:37;;;;;;;;;;;11.10;99.90;;;;;;4985512;28;208930;-72
2023/04/01 08:34:05;;;;;;;;;;;11.30;99.90;;;;;;5057460;28;19951;-72
2023/04/01 08:36:32;;;;;;;;;;;11.20;99.90;;;;;;5008271;28;207579;-72
2023/04/01 08:39:10;;;;;;;;;;;11.30;99.90;;;;;;5054128;28;19931;-73
2023/04/01 08:41:36;;;;;;;;;;;11.50;99.90;;;;;;4980665;28;19928;-73
2023/04/01 08:44:08;;;;;;;;;;;11.20;99.90;;;;;;5058053;28;19951;-71
2023/04/01 08:46:43;;;;;;;;;;;11.10;99.90;;;;;;5005179;28;46375;-72
2023/04/01 08:49:27;;;;;;;;;;;11.00;99.90;;;;;;5025967;28;209607;-72
2023/04/01 08:51:59;;;;;;;;;;;11.00;99.90;;;;;;5018718;28;19931;-71
2023/04/01 08:54:29;;;;;;;;;;;11.00;99.90;;;;;;4997168;28;209797;-71
2023/04/01 08:57:01;;;;;;;;;;;10.90;99.90;;;;;;5039852;28;19935;-71
2023/04/01 08:59:32;;;;;;;;;;;11.00;99.90;;;;;;5015323;28;209714;-72
2023/04/01 09:02:27;;;;;;;;;;;11.00;99.90;;;;;;5039199;28;20292;-71
2023/04/01 09:05:11;;;;;;;;;;;11.10;99.90;;;;;;4997685;28;205970;-71
2023/04/01 09:07:46;;;;;;;;;;;11.20;99.90;;;;;;5048005;28;19928;-74
2023/04/01 09:10:30;;;;;;;;;;;11.10;99.90;;;;;;5005743;28;208340;-73
2023/04/01 09:13:16;;;;;;;;;;;10.80;99.90;;;;;;5045103;28;19928;-73
2023/04/01 09:15:42;;;;;;;;;;;10.70;99.90;;;;;;4987146;28;149117;-73
2023/04/01 09:18:25;;;;;;;;;;;10.70;99.90;;;;;;5047921;28;19927;-73
2023/04/01 09:20:54;;;;;;;;;;;10.70;99.90;;;;;;4965893;28;206627;-74
2023/04/01 09:23:29;;;;;;;;;;;10.80;99.90;;;;;;5067266;28;19924;-73
2023/04/01 09:26:04;;;;;;;;;;;10.90;99.90;;;;;;4994729;28;208709;-72
2023/04/01 09:28:48;;;;;;;;;;;11.00;99.90;;;;;;5057404;28;19920;-73
2023/04/01 09:31:23;;;;;;;;;;;11.10;99.90;;;;;;4991540;28;216501;-75
2023/04/01 09:34:07;;;;;;;;;;;11.20;99.90;;;;;;5054859;28;19928;-73
2023/04/01 09:36:46;;;;;;;;;;;11.30;99.90;;;;;;5019557;28;127900;-73
2023/04/01 09:39:19;;;;;;;;;;;11.40;99.90;;;;;;4995067;28;220039;-73
2023/04/01 09:42:04;;;;;;;;;;;11.50;99.90;;;;;;5031982;28;19932;-73
2023/04/01 09:44:52;;;;;;;;;;;11.40;99.90;;;;;;5017942;28;218107;-70
2023/04/01 09:47:22;;;;;;;;;;;11.40;99.90;;;;;;5085123;28;19923;-72
2023/04/01 09:50:09;;;;;;;;;;;11.40;99.90;;;;;;5022137;28;208935;-71
2023/04/01 09:52:39;;;;;;;;;;;11.50;99.90;;;;;;5075714;28;20301;-72
2023/04/01 09:55:06;;;;;;;;;;;11.60;99.90;;;;;;5021971;28;214480;-70
2023/04/01 09:57:38;;;;;;;;;;;11.70;99.90;;;;;;5064072;28;20381;-71
2023/04/01 10:00:07;;;;;;;;;;;11.80;99.90;;;;;;4998016;28;208378;-72
2023/04/01 10:02:59;;;;;;;;;;;11.80;99.90;;;;;;5053155;28;19939;-71
2023/04/01 10:05:37;;;;;;;;;;;11.90;99.90;;;;;;4967293;28;25938;-70
2023/04/01 10:08:21;;;;;;;;;;;11.80;99.90;;;;;;5048427;28;20020;-71
2023/04/01 10:10:53;;;;;;;;;;;11.80;99.90;;;;;;5015468;28;207251;-71
2023/04/01 10:13:26;;;;;;;;;;;11.60;99.90;;;;;;5060535;28;20544;-70
2023/04/01 10:16:04;;;;;;;;;;;11.40;99.90;;;;;;5009022;28;210463;-71
2023/04/01 10:18:33;;;;;;;;;;;11.20;99.90;;;;;;5042054;28;20471;-70
2023/04/01 10:20:59;;;;;;;;;;;11.10;99.90;;;;;;5011844;28;208670;-70
2023/04/01 10:23:24;;;;;;;;;;;11.10;99.90;;;;;;5060061;28;19964;-70
2023/04/01 10:26:17;;;;;;;;;;;11.00;99.90;;;;;;5004519;28;207702;-71
2023/04/01 10:29:00;;;;;;;;;;;10.90;99.90;;;;;;5038053;28;19924;-70
2023/04/01 10:31:36;;;;;;;;;;;10.90;99.90;;;;;;4960091;28;206393;-70
2023/04/01 10:34:08;;;;;;;;;;;10.70;99.90;;;;;;5057520;28;19929;-71
2023/04/01 10:36:34;;;;;;;;;;;10.50;99.90;;;;;;4992102;28;132173;-69
2023/04/01 10:39:23;;;;;;;;;;;10.50;99.90;;;;;;5058558;28;20026;-69
2023/04/01 10:41:58;;;;;;;;;;;10.50;99.90;;;;;;4983488;28;37921;-71
2023/04/01 10:44:27;;;;;;;;;;;10.50;99.90;;;;;;5016690;28;218665;-71
2023/04/01 10:47:12;;;;;;;;;;;10.40;99.90;;;;;;5072902;28;19963;-70
2023/04/01 10:49:40;;;;;;;;;;;10.40;99.90;;;;;;4998334;28;207350;-71
2023/04/01 10:52:25;;;;;;;;;;;10.20;99.90;;;;;;5068425;28;19921;-69
2023/04/01 10:54:59;;;;;;;;;;;10.20;99.90;;;;;;4999731;28;213054;-68
2023/04/01 10:57:44;;;;;;;;;;;10.10;99.90;;;;;;5060971;28;19959;-69
2023/04/01 11:00:12;;;;;;;;;;;10.20;99.90;;;;;;5018603;28;206619;-70
2023/04/01 11:02:47;;;;;;;;;;;10.20;99.90;;;;;;5066113;28;19963;-70
2023/04/01 11:05:22;;;;;;;;;;;10.20;99.90;;;;;;4984200;28;207702;-70
2023/04/01 11:07:47;;;;;;;;;;;10.10;99.90;;;;;;5048627;28;19951;-71
2023/04/01 11:10:16;;;;;;;;;;;10.20;99.90;;;;;;5003200;28;206692;-70
2023/04/01 11:12:51;;;;;;;;;;;10.20;99.90;;;;;;5062728;28;19943;-70
2023/04/01 11:15:26;;;;;;;;;;;10.20;99.90;;;;;;4996326;28;216548;-70
2023/04/01 11:18:03;;;;;;;;;;;10.30;99.90;;;;;;5055173;28;19936;-70
2023/04/01 11:20:35;;;;;;;;;;;10.30;99.90;;;;;;5010581;28;209646;-71
2023/04/01 11:23:27;;;;;;;;;;;10.40;99.90;;;;;;5055879;28;20674;-68
2023/04/01 11:26:12;;;;;;;;;;;10.40;99.90;;;;;;4998879;28;209878;-71
2023/04/01 11:28:57;;;;;;;;;;;10.40;99.90;;;;;;5059163;28;19928;-72
2023/04/01 11:31:34;;;;;;;;;;;10.30;99.90;;;;;;4990558;28;207531;-69
2023/04/01 11:34:02;;;;;;;;;;;10.10;99.90;;;;;;5057664;28;19928;-71
2023/04/01 11:36:41;;;;;;;;;;;10.10;99.90;;;;;;4978480;28;206190;-69
2023/04/01 11:39:23;;;;;;;;;;;10.00;99.90;;;;;;5052611;28;207228;-71
2023/04/01 11:41:58;;;;;;;;;;;10.10;99.90;;;;;;4993176;28;19928;-71
2023/04/01 11:44:27;;;;;;;;;;;9.90;99.90;;;;;;4993811;28;213518;-70
2023/04/01 11:46:59;;;;;;;;;;;10.00;99.90;;;;;;5066166;28;19928;-69
2023/04/01 11:49:36;;;;;;;;;;;10.10;99.90;;;;;;4994427;28;211159;-70
2023/04/01 11:52:05;;;;;;;;;;;10.10;99.90;;;;;;5067130;28;20440;-70
2023/04/01 11:54:37;;;;;;;;;;;10.20;99.90;;;;;;5010805;28;206590;-72
2023/04/01 11:57:10;;;;;;;;;;;10.20;99.90;;;;;;5064494;28;20177;-70
2023/04/01 11:59:42;;;;;;;;;;;10.20;99.90;;;;;;5010287;28;207659;-72
2023/04/01 12:02:20;;;;;;;;;;;10.20;99.90;;;;;;5057126;28;19940;-71
2023/04/01 12:05:06;;;;;;;;;;;10.20;99.90;;;;;;4985902;28;207079;-72
2023/04/01 12:07:41;;;;;;;;;;;10.30;99.90;;;;;;5064915;28;19924;-70
2023/04/01 12:10:19;;;;;;;;;;;10.40;99.90;;;;;;5002696;28;211310;-71
2023/04/01 12:12:55;;;;;;;;;;;10.30;99.90;;;;;;5074864;28;20623;-71
2023/04/01 12:15:27;;;;;;;;;;;10.30;99.90;;;;;;4996330;28;214440;-70
2023/04/01 12:18:17;;;;;;;;;;;10.30;99.90;;;;;;5054646;28;20293;-71
2023/04/01 12:20:50;;;;;;;;;;;10.40;99.90;;;;;;4974569;28;207282;-71
2023/04/01 12:23:16;;;;;;;;;;;10.30;99.90;;;;;;5021558;28;19933;-71
2023/04/01 12:25:45;;;;;;;;;;;10.30;99.90;;;;;;4974108;28;218140;-70
2023/04/01 12:28:11;;;;;;;;;;;10.30;99.90;;;;;;5035308;28;20385;-70
2023/04/01 12:30:37;;;;;;;;;;;10.30;99.90;;;;;;4982941;28;206765;-71
2023/04/01 12:33:21;;;;;;;;;;;10.40;99.90;;;;;;5023905;28;20013;-70
2023/04/01 12:35:55;;;;;;;;;;;10.50;99.90;;;;;;4972832;28;205543;-71
2023/04/01 12:38:29;;;;;;;;;;;10.50;99.90;;;;;;5019796;28;19921;-71
2023/04/01 12:41:07;;;;;;;;;;;10.60;99.90;;;;;;4986141;28;205490;-70
2023/04/01 12:43:51;;;;;;;;;;;10.60;99.90;;;;;;5038412;28;19933;-71
2023/04/01 12:46:32;;;;;;;;;;;10.50;99.90;;;;;;4973382;28;122579;-71
2023/04/01 12:49:17;;;;;;;;;;;10.40;99.90;;;;;;5038894;28;20398;-70
2023/04/01 12:51:46;;;;;;;;;;;10.20;99.90;;;;;;4959777;28;211829;-70
2023/04/01 12:54:11;;;;;;;;;;;10.10;99.90;;;;;;4998063;28;178254;-71
2023/04/01 12:56:52;;;;;;;;;;;10.10;99.90;;;;;;5017388;28;19921;-72
2023/04/01 12:59:18;;;;;;;;;;;10.10;99.90;;;;;;5003334;28;210849;-71
2023/04/01 13:01:52;;;;;;;;;;;10.20;99.90;;;;;;5074757;28;19925;-69
2023/04/01 13:04:33;;;;;;;;;;;10.10;99.90;;;;;;4987449;28;211145;-71
2023/04/01 13:07:07;;;;;;;;;;;10.20;99.90;;;;;;5059073;28;19939;-70
2023/04/01 13:09:33;;;;;;;;;;;10.10;99.90;;;;;;5000177;28;233151;-71
2023/04/01 13:12:05;;;;;;;;;;;10.10;99.90;;;;;;5074292;28;20352;-71
2023/04/01 13:15:04;;;;;;;;;;;10.00;99.90;;;;;;5005712;28;210729;-71
2023/04/01 13:17:41;;;;;;;;;;;9.90;99.90;;;;;;5063020;28;19920;-71
2023/04/01 13:20:23;;;;;;;;;;;9.80;99.90;;;;;;5007085;28;210161;-71
2023/04/01 13:22:59;;;;;;;;;;;9.80;99.90;;;;;;5057673;28;19951;-71
2023/04/01 13:25:32;;;;;;;;;;;9.70;99.90;;;;;;5012786;28;210518;-71
2023/04/01 13:28:25;;;;;;;;;;;9.70;99.90;;;;;;5061284;28;19925;-69
2023/04/01 13:30:54;;;;;;;;;;;9.70;99.90;;;;;;4987014;28;205382;-70
2023/04/01 13:33:35;;;;;;;;;;;9.70;99.90;;;;;;5058018;28;19931;-72
2023/04/01 13:36:07;;;;;;;;;;;9.70;99.90;;;;;;5004159;28;215008;-70
2023/04/01 13:38:39;;;;;;;;;;;9.60;99.90;;;;;;5074179;28;19925;-71
2023/04/01 13:41:08;;;;;;;;;;;9.50;99.90;;;;;;5022706;28;208094;-70
2023/04/01 13:43:41;;;;;;;;;;;9.40;99.90;;;;;;5063650;28;21964;-72
2023/04/01 13:46:19;;;;;;;;;;;9.50;99.90;;;;;;5012061;28;149988;-69
2023/04/01 13:48:45;;;;;;;;;;;9.40;99.90;;;;;;5079891;28;19920;-70
2023/04/01 13:51:20;;;;;;;;;;;9.40;99.90;;;;;;5028032;28;208143;-71
2023/04/01 13:53:46;;;;;;;;;;;9.40;99.90;;;;;;5076687;28;20282;-70
2023/04/01 13:56:30;;;;;;;;;;;9.40;99.90;;;;;;5014444;28;207749;-71
2023/04/01 13:58:56;;;;;;;;;;;9.50;99.90;;;;;;5065760;28;20440;-70
2023/04/01 14:01:31;;;;;;;;;;;9.40;99.90;;;;;;5006889;28;143133;-70
2023/04/01 14:04:22;;;;;;;;;;;9.40;99.90;;;;;;5061180;28;19929;-70
2023/04/01 14:07:06;;;;;;;;;;;9.50;99.90;;;;;;5012314;28;19924;-70
2023/04/01 14:09:48;;;;;;;;;;;9.50;99.90;;;;;;5002726;28;208550;-70
2023/04/01 14:12:43;;;;;;;;;;;9.30;99.90;;;;;;5073204;28;19963;-71
2023/04/01 14:15:19;;;;;;;;;;;9.40;99.90;;;;;;5001098;28;207039;-71
2023/04/01 14:17:48;;;;;;;;;;;9.40;99.90;;;;;;5030157;28;19924;-70
2023/04/01 14:20:33;;;;;;;;;;;9.40;99.90;;;;;;4972082;28;206081;-69
2023/04/01 14:23:13;;;;;;;;;;;9.30;99.90;;;;;;5038343;28;20338;-70
2023/04/01 14:25:57;;;;;;;;;;;9.30;99.90;;;;;;4991146;28;124184;-70
2023/04/01 14:28:39;;;;;;;;;;;9.30;99.90;;;;;;5053362;28;19931;-72
2023/04/01 14:31:24;;;;;;;;;;;9.20;99.90;;;;;;4970429;28;205051;-71
2023/04/01 14:33:52;;;;;;;;;;;9.20;99.90;;;;;;5060485;28;19920;-70
2023/04/01 14:36:18;;;;;;;;;;;9.30;99.90;;;;;;4957306;28;211525;-71
2023/04/01 14:38:47;;;;;;;;;;;9.30;99.90;;;;;;5061646;28;19956;-70
2023/04/01 14:41:16;;;;;;;;;;;9.20;99.90;;;;;;4980744;28;197774;-72
2023/04/01 14:43:53;;;;;;;;;;;9.20;99.90;;;;;;5056173;28;20402;-71
2023/04/01 14:46:46;;;;;;;;;;;9.20;99.90;;;;;;5011105;28;206192;-70